Time;durP1;ratioP1;P1;durP2;ratioP2;P2;SDS_P1;SDS_P2;PMS_P1;PMS_P2;Temp;Humidity;BMP_temperature;BMP_pressure;BME280_temperature;BME280_humidity;BME280_pressure;Samples;Min_cycle;Max_cycle;Signal;HPM_P1;HPM_P2
2022/09/17 00:01:21;;;;;;;6.25;2.60;;;;;;;26.06;46.73;98674.72;5050298;28;20031;-38
2022/09/17 00:03:51;;;;;;;6.25;2.75;;;;;;;25.96;47.06;98672.41;5050190;28;20444;-37
2022/09/17 00:06:17;;;;;;;7.47;2.80;;;;;;;25.96;47.01;98675.91;5050397;28;20029;-38
2022/09/17 00:08:42;;;;;;;5.90;2.58;;;;;;;26.09;46.84;98688.47;5048884;28;20025;-38
2022/09/17 00:11:19;;;;;;;6.80;2.80;;;;;;;25.90;47.08;98694.34;5050370;28;20025;-38
2022/09/17 00:13:46;;;;;;;7.18;2.83;;;;;;;25.72;47.50;98687.41;5050728;28;20108;-38
2022/09/17 00:16:12;;;;;;;5.55;2.53;;;;;;;25.81;47.19;98679.19;5050992;28;20428;-37
2022/09/17 00:18:40;;;;;;;6.32;2.70;;;;;;;25.62;47.58;98672.25;5050557;28;20529;-37
2022/09/17 00:21:14;;;;;;;6.78;2.80;;;;;;;25.63;47.41;98675.78;5050336;28;20482;-37
2022/09/17 00:23:39;;;;;;;5.65;2.70;;;;;;;25.43;48.42;98669.94;5050455;28;20100;-37
2022/09/17 00:26:05;;;;;;;4.95;2.58;;;;;;;25.41;48.57;98669.47;5050505;28;20390;-37
2022/09/17 00:28:31;;;;;;;6.00;2.70;;;;;;;25.45;48.51;98678.56;5050583;28;20440;-37
2022/09/17 00:30:57;;;;;;;5.07;2.50;;;;;;;25.33;48.69;98673.84;5050016;28;20385;-38
2022/09/17 00:33:22;;;;;;;6.80;2.50;;;;;;;25.46;48.28;98673.94;5050365;28;20032;-38
2022/09/17 00:36:00;;;;;;;4.47;2.75;;;;;;;25.41;48.53;98683.09;5050542;28;20516;-38
2022/09/17 00:38:26;;;;;;;6.60;2.70;;;;;;;25.36;48.92;98683.28;5050480;28;20100;-38
2022/09/17 00:40:52;;;;;;;8.65;3.00;;;;;;;25.40;48.86;98677.97;5049992;28;20032;-38
2022/09/17 00:44:08;;;;;;;8.35;2.95;;;;;;;25.43;49.10;98683.56;5050071;28;20440;-38
2022/09/17 00:46:40;;;;;;;5.13;2.63;;;;;;;25.46;49.04;98682.91;5028126;28;20029;-38
2022/09/17 00:49:20;;;;;;;8.38;2.92;;;;;;;25.43;49.32;98685.50;5047545;28;20033;-38
2022/09/17 00:51:53;;;;;;;5.30;2.67;;;;;;;25.40;49.13;98680.69;5053761;28;20025;-36
2022/09/17 00:54:19;;;;;;;8.13;4.07;;;;;;;25.39;49.24;98677.19;5054225;28;20051;-43
2022/09/17 00:56:46;;;;;;;7.75;3.33;;;;;;;25.14;49.90;98676.13;5054122;28;20136;-37
2022/09/17 00:59:13;;;;;;;5.85;3.10;;;;;;;24.82;50.75;98678.31;5053737;28;20021;-37
2022/09/17 01:01:39;;;;;;;7.90;3.50;;;;;;;24.83;50.66;98669.03;5053558;28;20025;-37
2022/09/17 01:04:04;;;;;;;8.52;3.30;;;;;;;24.83;50.78;98681.81;5053394;28;20123;-37
2022/09/17 01:06:41;;;;;;;10.02;4.57;;;;;;;24.93;50.74;98682.28;5053563;28;20437;-38
2022/09/17 01:09:15;;;;;;;8.77;4.07;;;;;;;24.89;50.74;98684.06;5054235;28;20092;-38
2022/09/17 01:11:59;;;;;;;10.75;3.33;;;;;;;24.75;50.94;98676.09;5053594;28;20474;-38
2022/09/17 01:14:27;;;;;;;8.25;3.38;;;;;;;24.63;51.19;98675.16;5053442;28;20103;-37
2022/09/17 01:17:18;;;;;;;6.28;3.30;;;;;;;24.63;51.25;98670.50;5053504;28;20021;-37
2022/09/17 01:20:02;;;;;;;6.10;3.38;;;;;;;24.40;51.65;98661.72;5053672;28;20045;-37
2022/09/17 01:23:12;;;;;;;9.30;3.58;;;;;;;24.06;52.85;98668.75;5053270;28;20055;-37
2022/09/17 01:26:05;;;;;;;6.05;3.10;;;;;;;24.15;52.78;98672.25;5053281;28;20094;-37
2022/09/17 01:28:45;;;;;;;7.80;3.08;;;;;;;24.16;53.04;98673.06;5052542;28;20075;-37
2022/09/17 01:31:14;;;;;;;;;;;;;;;24.55;51.83;98677.56;5053160;28;20049;-37
2022/09/17 01:34:08;;;;;;;6.78;3.22;;;;;;;24.54;51.80;98678.69;5053137;28;19913;-37
2022/09/17 01:37:18;;;;;;;11.27;3.53;;;;;;;24.58;51.39;98676.13;5048916;28;20032;-37
2022/09/17 01:39:53;;;;;;;6.57;3.38;;;;;;;24.54;51.50;98675.16;5045737;28;20195;-37
2022/09/17 01:42:26;;;;;;;9.70;3.28;;;;;;;24.53;51.17;98674.34;5053116;28;20025;-37
2022/09/17 01:45:02;;;;;;;7.50;3.30;;;;;;;24.51;51.63;98671.16;5052659;28;20044;-38
2022/09/17 01:47:34;;;;;;;13.40;3.40;;;;;;;24.50;51.89;98671.44;5052840;28;20123;-38
2022/09/17 01:50:06;;;;;;;8.55;3.15;;;;;;;24.50;51.93;98669.56;5053172;28;20066;-37
2022/09/17 01:52:34;;;;;;;8.32;3.00;;;;;;;24.26;51.99;98631.97;5052550;28;20025;-38
2022/09/17 01:55:06;;;;;;;5.47;2.90;;;;;;;24.49;52.06;98675.31;5053197;28;20021;-38
2022/09/17 01:57:52;;;;;;;7.07;3.30;;;;;;;24.46;52.16;98673.22;5052520;28;20247;-38
2022/09/17 02:00:18;;;;;;;7.28;3.20;;;;;;;24.47;52.01;98672.13;5052485;28;20033;-38
2022/09/17 02:03:04;;;;;;;8.20;3.10;;;;;;;24.39;52.16;98662.84;5052304;28;20028;-37
2022/09/17 02:05:36;;;;;;;7.10;3.28;;;;;;;24.35;52.13;98664.59;5052808;28;20024;-37
2022/09/17 02:08:10;;;;;;;8.80;2.72;;;;;;;24.14;52.70;98659.81;5051118;28;20059;-37
2022/09/17 02:10:41;;;;;;;6.32;3.30;;;;;;;23.76;53.95;98657.66;5052547;28;20081;-38
2022/09/17 02:13:20;;;;;;;8.00;3.00;;;;;;;23.70;54.20;98647.25;5052369;28;20028;-37
2022/09/17 02:15:59;;;;;;;7.10;3.10;;;;;;;23.63;54.64;98653.16;5052763;28;20047;-37
2022/09/17 02:18:27;;;;;;;6.90;3.40;;;;;;;23.58;54.70;98651.38;5052043;28;20787;-37
2022/09/17 02:21:04;;;;;;;8.60;3.05;;;;;;;23.68;54.57;98641.34;5051783;28;20025;-38
2022/09/17 02:23:37;;;;;;;6.30;3.08;;;;;;;23.73;54.60;98654.78;5051420;28;20017;-38
2022/09/17 02:26:22;;;;;;;8.90;3.42;;;;;;;23.66;54.79;98655.22;5051745;28;20029;-37
2022/09/17 02:28:52;;;;;;;6.82;3.30;;;;;;;23.68;54.55;98644.06;5051068;28;20033;-37
2022/09/17 02:31:18;;;;;;;6.72;3.03;;;;;;;23.63;54.56;98636.88;5051766;28;20469;-37
2022/09/17 02:33:49;;;;;;;7.88;3.20;;;;;;;23.61;54.76;98642.63;5052185;28;20025;-37
2022/09/17 02:36:15;;;;;;;4.75;3.10;;;;;;;23.41;55.25;98635.84;5052260;28;20032;-37
2022/09/17 02:38:44;;;;;;;12.35;3.22;;;;;;;23.31;55.70;98635.34;5051690;28;20033;-37
2022/09/17 02:41:19;;;;;;;5.85;3.25;;;;;;;23.36;55.68;98629.78;5052009;28;20469;-37
2022/09/17 02:44:08;;;;;;;9.13;3.08;;;;;;;23.38;55.48;98622.94;5051941;28;20430;-37
2022/09/17 02:47:17;;;;;;;8.50;3.25;;;;;;;23.47;55.24;98606.66;5052060;28;20025;-37
2022/09/17 02:50:08;;;;;;;8.05;3.75;;;;;;;23.35;55.74;98612.69;5051461;28;20100;-37
2022/09/17 02:52:53;;;;;;;9.15;3.30;;;;;;;23.45;55.33;98610.81;5051524;28;20021;-37
2022/09/17 02:55:24;;;;;;;7.78;3.10;;;;;;;23.46;55.25;98613.22;5052081;28;20021;-37
2022/09/17 02:57:58;;;;;;;11.82;3.42;;;;;;;23.44;55.59;98618.16;5052546;28;20031;-37
2022/09/17 03:00:25;;;;;;;7.72;3.50;;;;;;;23.43;55.31;98601.03;5051581;28;20104;-37
2022/09/17 03:02:59;;;;;;;6.93;3.35;;;;;;;23.43;55.53;98606.47;5066286;28;20029;-37
2022/09/17 03:05:27;;;;;;;5.93;3.20;;;;;;;23.52;54.98;98614.66;5071616;28;20036;-37
2022/09/17 03:07:58;;;;;;;5.72;3.05;;;;;;;23.47;55.56;98608.56;5071384;28;20032;-37
2022/09/17 03:10:24;;;;;;;8.07;3.67;;;;;;;23.52;55.19;98600.28;5071094;28;20103;-37
2022/09/17 03:12:54;;;;;;;10.05;3.47;;;;;;;23.54;55.40;98587.19;5070878;28;20030;-37
2022/09/17 03:15:19;;;;;;;9.25;3.40;;;;;;;23.52;55.19;98587.50;5071329;28;20021;-37
2022/09/17 03:17:45;;;;;;;6.35;3.33;;;;;;;23.46;55.41;98579.84;5071251;28;20047;-37
2022/09/17 03:20:10;;;;;;;12.88;3.67;;;;;;;23.44;55.53;98569.28;5071214;28;20128;-37
2022/09/17 03:22:36;;;;;;;8.85;3.65;;;;;;;23.47;55.57;98579.50;5070642;28;20040;-38
2022/09/17 03:25:01;;;;;;;8.88;3.55;;;;;;;23.48;55.50;98583.81;5071257;28;20024;-38
2022/09/17 03:27:27;;;;;;;8.63;3.53;;;;;;;23.48;55.47;98583.81;5070875;28;20048;-38
2022/09/17 03:29:52;;;;;;;6.68;3.53;;;;;;;23.49;55.40;98571.84;5071011;28;20028;-38
2022/09/17 03:32:18;;;;;;;9.23;3.95;;;;;;;23.49;55.30;98566.41;5050606;28;20017;-38
2022/09/17 03:34:45;;;;;;;9.32;3.75;;;;;;;23.53;55.20;98570.09;5050934;28;20229;-37
2022/09/17 03:37:11;;;;;;;12.07;3.72;;;;;;;23.43;55.41;98570.41;5051026;28;20104;-37
2022/09/17 03:39:36;;;;;;;6.78;3.28;;;;;;;23.33;55.69;98571.50;5050502;28;20455;-38
2022/09/17 03:42:02;;;;;;;7.18;3.40;;;;;;;23.33;55.87;98568.78;5050863;28;20451;-37
2022/09/17 03:44:27;;;;;;;9.15;3.55;;;;;;;23.31;56.35;98562.09;5050808;28;20485;-38
2022/09/17 03:46:52;;;;;;;10.80;4.03;;;;;;;23.30;56.02;98547.69;5050943;28;20267;-38
2022/09/17 03:49:18;;;;;;;11.93;3.72;;;;;;;23.25;56.37;98549.75;5051300;28;20021;-37
2022/09/17 03:51:44;;;;;;;9.02;3.70;;;;;;;23.26;56.23;98545.94;5050756;28;20388;-37
2022/09/17 03:54:09;;;;;;;8.63;4.05;;;;;;;23.28;56.03;98541.78;5050406;28;20123;-37
2022/09/17 03:56:35;;;;;;;9.93;3.70;;;;;;;23.28;56.21;98547.22;5050764;28;20465;-37
2022/09/17 03:59:01;;;;;;;11.07;3.70;;;;;;;23.23;56.42;98539.25;5050781;28;20037;-37
2022/09/17 04:01:27;;;;;;;8.52;3.38;;;;;;;23.29;56.19;98539.88;5054156;28;20146;-37
2022/09/17 04:03:53;;;;;;;7.50;4.28;;;;;;;23.32;56.16;98552.81;5070304;28;20031;-36
2022/09/17 04:06:19;;;;;;;7.60;3.58;;;;;;;22.97;57.02;98553.50;5070909;28;20025;-36
2022/09/17 04:08:44;;;;;;;9.60;3.97;;;;;;;22.62;58.16;98561.50;5070446;28;20056;-36
2022/09/17 04:11:10;;;;;;;9.63;3.67;;;;;;;22.45;58.70;98548.66;5070801;28;20090;-37
2022/09/17 04:13:35;;;;;;;9.68;3.55;;;;;;;22.60;58.49;98549.38;5070167;28;20055;-37
2022/09/17 04:16:02;;;;;;;10.65;3.70;;;;;;;22.68;58.18;98556.75;5070126;28;20070;-37
2022/09/17 04:18:27;;;;;;;8.68;3.55;;;;;;;22.65;57.83;98562.78;5070401;28;20080;-37
2022/09/17 04:20:53;;;;;;;10.35;3.58;;;;;;;22.71;57.15;98564.22;5070535;28;20500;-37
2022/09/17 04:23:19;;;;;;;12.98;3.53;;;;;;;22.90;56.97;98553.16;5071453;28;20024;-37
2022/09/17 04:25:44;;;;;;;9.05;3.10;;;;;;;22.53;58.25;98549.81;5074421;28;20040;-37
2022/09/17 04:28:10;;;;;;;11.70;3.83;;;;;;;22.80;57.72;98546.09;5074487;28;20024;-36
2022/09/17 04:30:36;;;;;;;11.45;4.07;;;;;;;22.91;57.59;98546.63;5068564;28;20037;-36
2022/09/17 04:33:01;;;;;;;10.65;3.95;;;;;;;23.27;56.82;98547.56;5054213;28;20041;-37
2022/09/17 04:35:27;;;;;;;12.07;4.10;;;;;;;23.53;55.72;98540.25;5054094;28;20024;-36
2022/09/17 04:37:54;;;;;;;8.38;3.65;;;;;;;23.55;55.57;98518.19;5054287;28;20025;-36
2022/09/17 04:40:20;;;;;;;9.52;3.70;;;;;;;23.70;55.16;98519.63;5054296;28;20090;-37
2022/09/17 04:42:46;;;;;;;9.38;3.67;;;;;;;23.54;55.87;98519.31;5053940;28;20075;-36
2022/09/17 04:45:11;;;;;;;7.47;3.70;;;;;;;23.61;55.79;98533.22;5054409;28;20029;-36
2022/09/17 04:47:40;;;;;;;6.93;3.63;;;;;;;23.73;55.48;98546.16;5053852;28;20536;-36
2022/09/17 04:50:06;;;;;;;7.37;3.50;;;;;;;23.91;54.90;98553.22;5054300;28;20027;-36
2022/09/17 04:52:32;;;;;;;9.55;3.88;;;;;;;24.17;54.78;98563.25;5053628;28;20017;-36
2022/09/17 04:54:57;;;;;;;9.32;3.50;;;;;;;24.43;54.03;98557.75;5053313;28;20098;-39
2022/09/17 04:57:24;;;;;;;9.15;3.25;;;;;;;24.55;53.92;98554.41;5054320;28;20037;-38
2022/09/17 04:59:50;;;;;;;9.77;3.50;;;;;;;24.69;53.48;98560.41;5060921;28;20029;-37
2022/09/17 05:02:15;;;;;;;11.93;4.18;;;;;;;24.87;52.96;98566.59;5051405;28;20043;-37
2022/09/17 05:04:41;;;;;;;10.13;4.13;;;;;;;25.25;52.45;98559.56;5052347;28;20029;-37
2022/09/17 05:07:06;;;;;;;11.02;4.10;;;;;;;25.48;51.69;98554.59;5049586;28;20027;-37
2022/09/17 05:09:31;;;;;;;10.98;4.10;;;;;;;25.70;50.95;98557.00;5055820;28;20487;-38
2022/09/17 05:11:57;;;;;;;8.52;4.30;;;;;;;26.13;50.17;98563.22;5052565;28;20477;-35
2022/09/17 05:14:22;;;;;;;12.15;3.90;;;;;;;26.18;48.28;98554.03;5052274;28;20017;-37
2022/09/17 05:16:48;;;;;;;10.98;3.95;;;;;;;25.95;49.54;98557.16;5053100;28;20635;-37
2022/09/17 05:19:13;;;;;;;11.43;3.75;;;;;;;26.18;48.95;98559.47;5052437;28;20201;-36
2022/09/17 05:21:38;;;;;;;18.38;6.00;;;;;;;26.67;47.81;98565.91;5036180;28;20036;-37
2022/09/17 05:24:04;;;;;;;24.48;12.15;;;;;;;27.07;46.65;98575.34;5052520;28;20032;-37
2022/09/17 05:26:29;;;;;;;16.38;8.00;;;;;;;27.41;46.13;98565.09;5052498;28;20422;-37
2022/09/17 05:28:55;;;;;;;18.88;9.60;;;;;;;27.60;44.92;98568.03;5052311;28;20047;-36
2022/09/17 05:31:20;;;;;;;13.00;4.75;;;;;;;27.81;44.25;98572.53;5052248;28;20029;-37
2022/09/17 05:33:45;;;;;;;30.30;18.23;;;;;;;28.00;44.58;98575.44;5052250;28;20485;-37
2022/09/17 05:36:11;;;;;;;12.23;5.40;;;;;;;28.28;43.64;98569.97;5051705;28;20099;-38
2022/09/17 05:38:37;;;;;;;11.30;4.22;;;;;;;28.68;41.66;98570.22;5050617;28;20025;-37
2022/09/17 05:41:05;;;;;;;13.13;5.15;;;;;;;28.16;42.31;98577.41;5051657;28;20017;-37
2022/09/17 05:43:30;;;;;;;9.60;3.53;;;;;;;28.83;41.11;98594.06;5052110;28;20009;-37
2022/09/17 05:46:00;;;;;;;7.75;2.90;;;;;;;29.07;40.63;98601.28;5052442;28;20394;-45
2022/09/17 05:48:26;;;;;;;11.20;3.65;;;;;;;29.05;40.28;98598.94;5051955;28;20021;-44
2022/09/17 05:50:54;;;;;;;10.55;4.65;;;;;;;28.66;41.27;98604.19;5051609;28;20387;-43
2022/09/17 05:53:19;;;;;;;7.95;2.80;;;;;;;28.58;40.76;98596.97;5049566;28;20056;-43
2022/09/17 05:55:45;;;;;;;11.77;4.40;;;;;;;28.50;41.28;98599.81;5051946;28;20021;-45
2022/09/17 05:58:12;;;;;;;7.25;2.75;;;;;;;28.69;40.28;98610.13;5050643;28;20024;-44
2022/09/17 06:00:40;;;;;;;9.63;4.05;;;;;;;28.76;40.17;98602.09;5050832;28;20111;-44
2022/09/17 06:03:09;;;;;;;7.82;3.25;;;;;;;29.03;39.73;98617.66;5048667;28;20424;-44
2022/09/17 06:05:34;;;;;;;6.57;2.60;;;;;;;29.27;39.89;98621.38;5050558;28;20025;-44
2022/09/17 06:08:00;;;;;;;10.52;3.47;;;;;;;29.57;38.82;98620.88;5051127;28;20029;-44
2022/09/17 06:10:25;;;;;;;9.50;3.65;;;;;;;29.47;39.07;98616.72;5051879;28;20017;-47
2022/09/17 06:12:56;;;;;;;8.10;3.05;;;;;;;29.75;38.22;98624.03;5051414;28;20032;-45
2022/09/17 06:15:21;;;;;;;7.80;3.15;;;;;;;30.09;37.41;98636.09;5051924;28;20024;-46
2022/09/17 06:17:47;;;;;;;7.68;3.03;;;;;;;30.35;37.28;98634.69;5038923;28;20037;-44
2022/09/17 06:20:12;;;;;;;13.15;3.60;;;;;;;30.05;38.05;98631.72;5033319;28;20505;-45
2022/09/17 06:22:38;;;;;;;10.50;3.00;;;;;;;30.09;37.86;98616.13;5031102;28;20036;-44
2022/09/17 06:25:03;;;;;;;6.53;2.72;;;;;;;30.11;37.96;98622.03;5031576;28;20112;-44
2022/09/17 06:27:33;;;;;;;10.27;2.90;;;;;;;30.32;37.48;98638.16;5031230;28;20444;-45
2022/09/17 06:29:59;;;;;;;8.55;2.83;;;;;;;30.43;37.17;98641.91;5030867;28;20029;-44
2022/09/17 06:32:25;;;;;;;7.82;2.90;;;;;;;30.39;37.61;98647.31;5030962;28;20091;-45
2022/09/17 06:34:51;;;;;;;14.65;3.97;;;;;;;30.49;37.65;98647.88;5029444;28;20045;-44
2022/09/17 06:37:17;;;;;;;9.93;3.00;;;;;;;29.79;38.53;98649.56;5030068;28;20506;-43
2022/09/17 06:39:44;;;;;;;7.60;3.45;;;;;;;29.87;38.66;98650.50;5029927;28;20029;-44
2022/09/17 06:42:10;;;;;;;7.82;3.13;;;;;;;29.50;39.26;98659.88;5030542;28;20392;-46
2022/09/17 06:44:35;;;;;;;12.75;4.55;;;;;;;28.46;40.88;98663.47;5030351;28;20037;-45
2022/09/17 06:47:01;;;;;;;7.15;3.50;;;;;;;28.41;41.49;98671.91;5029555;28;20028;-44
2022/09/17 06:49:27;;;;;;;10.57;3.33;;;;;;;27.88;42.76;98665.66;5030476;28;20068;-44
2022/09/17 06:51:53;;;;;;;7.50;3.17;;;;;;;27.56;43.29;98665.47;5031147;28;20097;-44
2022/09/17 06:54:18;;;;;;;10.40;2.80;;;;;;;27.84;43.30;98664.78;5030356;28;20033;-45
2022/09/17 06:56:46;;;;;;;8.18;3.22;;;;;;;28.23;42.39;98644.03;5030414;28;20037;-43
2022/09/17 06:59:11;;;;;;;10.95;3.00;;;;;;;29.16;40.58;98634.00;5030652;28;20061;-44
2022/09/17 07:01:37;;;;;;;6.82;3.47;;;;;;;29.02;40.69;98639.91;5035771;28;20107;-43
2022/09/17 07:04:02;;;;;;;7.90;3.25;;;;;;;29.36;40.07;98641.16;5051011;28;20033;-49
2022/09/17 07:06:27;;;;;;;7.97;2.80;;;;;;;29.37;39.97;98672.06;5050849;28;20025;-44
2022/09/17 07:08:53;;;;;;;8.15;2.90;;;;;;;29.48;39.64;98664.91;5051135;28;20040;-43
2022/09/17 07:11:18;;;;;;;8.82;2.97;;;;;;;29.22;39.88;98665.44;5051018;28;20032;-45
2022/09/17 07:13:44;;;;;;;7.63;3.67;;;;;;;28.81;40.66;98651.91;5050902;28;20366;-46
2022/09/17 07:16:10;;;;;;;10.82;4.25;;;;;;;29.12;40.13;98644.06;5050826;28;20025;-46
2022/09/17 07:18:40;;;;;;;8.90;3.15;;;;;;;29.31;39.48;98629.66;5106145;27;1331787;-46
2022/09/17 07:21:06;;;;;;;7.40;2.50;;;;;;;29.14;39.79;98631.63;5128860;27;20051;-46
2022/09/17 07:23:34;;;;;;;7.55;3.08;;;;;;;29.62;38.64;98621.41;5128469;27;20106;-47
2022/09/17 07:26:02;;;;;;;5.82;2.60;;;;;;;30.05;38.37;98623.50;5128333;27;20023;-44
2022/09/17 07:28:28;;;;;;;7.90;3.13;;;;;;;29.90;38.14;98634.16;5128604;27;20023;-44
2022/09/17 07:30:54;;;;;;;7.45;2.42;;;;;;;29.40;39.40;98635.75;5128541;27;20027;-43
2022/09/17 07:33:23;;;;;;;9.10;3.08;;;;;;;29.28;39.44;98622.94;5128661;27;20106;-46
2022/09/17 07:35:55;;;;;;;;;;;;;;;29.60;39.09;98609.97;5129064;27;20027;-42
2022/09/17 07:38:22;;;;;;;8.25;3.20;;;;;;;29.79;38.35;98605.72;5128170;27;19916;-44
2022/09/17 07:41:14;;;;;;;10.13;3.28;;;;;;;30.01;38.04;98596.00;5128332;27;20019;-42
2022/09/17 07:43:41;;;;;;;15.65;5.55;;;;;;;29.77;37.86;98592.34;5126570;28;20114;-45
2022/09/17 07:46:11;;;;;;;11.20;4.30;;;;;;;29.93;38.26;98603.28;5128024;27;20038;-43
2022/09/17 07:48:37;;;;;;;6.10;3.17;;;;;;;30.51;37.73;98596.94;5127574;27;20425;-45
2022/09/17 07:51:02;;;;;;;10.70;3.15;;;;;;;31.23;36.75;98608.38;5128164;28;20436;-44
2022/09/17 07:53:28;;;;;;;8.68;2.90;;;;;;;31.84;35.93;98609.25;5127749;27;20026;-48
2022/09/17 07:55:55;;;;;;;10.38;4.28;;;;;;;31.12;36.51;98595.25;5127872;28;20411;-44
2022/09/17 07:58:31;;;;;;;9.55;4.38;;;;;;;31.65;35.80;98604.69;5127806;27;20034;-44
2022/09/17 08:01:05;;;;;;;11.80;3.50;;;;;;;32.50;34.21;98604.94;5118206;27;20173;-45
2022/09/17 08:03:32;;;;;;;7.78;2.80;;;;;;;33.19;33.47;98613.84;5107579;28;20054;-42
2022/09/17 08:06:08;;;;;;;8.80;3.10;;;;;;;33.66;32.88;98623.22;5109521;28;20462;-42
2022/09/17 08:08:35;;;;;;;9.05;3.20;;;;;;;33.34;32.22;98623.78;5127930;27;20466;-43
2022/09/17 08:11:12;;;;;;;12.20;3.20;;;;;;;33.42;32.14;98608.88;5127239;27;20487;-45
2022/09/17 08:13:38;;;;;;;9.00;2.90;;;;;;;33.88;31.72;98605.59;5127310;27;20031;-43
2022/09/17 08:16:06;;;;;;;12.73;5.05;;;;;;;34.27;30.98;98593.94;5127702;27;20028;-44
2022/09/17 08:18:32;;;;;;;13.30;8.70;;;;;;;34.22;31.17;98601.81;5126807;27;20047;-43
2022/09/17 08:20:59;;;;;;;9.15;3.70;;;;;;;34.40;30.72;98610.13;5126592;27;20447;-45
2022/09/17 08:23:26;;;;;;;9.05;3.88;;;;;;;33.79;30.75;98616.19;5127136;27;20035;-46
2022/09/17 08:25:57;;;;;;;12.43;3.92;;;;;;;33.30;32.03;98611.94;5127553;27;20023;-44
2022/09/17 08:28:24;;;;;;;9.45;2.97;;;;;;;33.55;30.89;98592.81;5122751;27;20019;-44
2022/09/17 08:30:50;;;;;;;7.72;3.50;;;;;;;33.66;31.21;98593.69;5113392;28;20028;-45
2022/09/17 08:33:16;;;;;;;9.65;2.90;;;;;;;34.08;30.61;98591.47;5113248;28;20042;-44
2022/09/17 08:35:42;;;;;;;12.82;3.70;;;;;;;33.03;32.51;98587.31;5113918;28;20039;-45
2022/09/17 08:38:07;;;;;;;12.18;3.17;;;;;;;33.46;31.36;98587.63;5113603;28;20426;-47
2022/09/17 08:40:42;;;;;;;6.68;3.13;;;;;;;33.37;32.07;98598.19;5113403;28;20384;-48
2022/09/17 08:43:15;;;;;;;11.48;3.22;;;;;;;34.01;31.10;98591.47;5112961;28;20388;-46
2022/09/17 08:45:40;;;;;;;6.18;2.88;;;;;;;34.36;30.21;98584.47;5113243;28;20379;-48
2022/09/17 08:48:13;;;;;;;11.48;2.90;;;;;;;34.08;30.28;98580.44;5113332;28;20073;-45
2022/09/17 08:50:41;;;;;;;10.65;3.03;;;;;;;34.34;30.60;98592.38;5113354;28;20055;-44
2022/09/17 08:53:20;;;;;;;6.85;3.20;;;;;;;34.46;30.65;98581.75;5112694;28;20076;-44
2022/09/17 08:55:50;;;;;;;7.57;2.78;;;;;;;35.04;29.27;98595.59;5113150;28;20035;-42
2022/09/17 08:59:03;;;;;;;7.22;2.70;;;;;;;35.13;28.50;98575.84;5112791;28;20411;-46
2022/09/17 09:01:55;;;;;;;8.02;2.88;;;;;;;34.89;28.63;98566.41;5030032;28;20029;-44
2022/09/17 09:04:27;;;;;;;7.63;2.53;;;;;;;34.97;28.51;98563.22;5092329;28;20032;-44
2022/09/17 09:07:12;;;;;;;10.88;2.83;;;;;;;35.20;28.12;98557.28;5102070;28;20024;-43
2022/09/17 09:09:48;;;;;;;6.72;3.05;;;;;;;35.55;28.25;98541.03;5111387;28;20428;-47
2022/09/17 09:12:24;;;;;;;6.63;2.70;;;;;;;35.80;27.31;98536.19;5112846;28;20031;-46
2022/09/17 09:14:58;;;;;;;10.40;2.78;;;;;;;35.17;27.97;98538.75;5112975;28;20111;-46
2022/09/17 09:17:46;;;;;;;17.05;3.58;;;;;;;35.00;28.77;98518.22;5112546;27;20514;-43
2022/09/17 09:20:17;;;;;;;8.50;3.10;;;;;;;35.54;28.48;98522.84;5112055;28;20660;-47
2022/09/17 09:22:49;;;;;;;7.07;2.80;;;;;;;35.88;28.58;98516.78;5110777;28;20459;-46
2022/09/17 09:25:22;;;;;;;10.77;2.92;;;;;;;36.17;27.99;98506.34;5112055;28;20486;-45
2022/09/17 09:28:09;;;;;;;14.77;10.60;;;;;;;36.07;27.78;98494.13;5112875;28;20066;-43
2022/09/17 09:30:44;;;;;;;11.77;4.38;;;;;;;36.15;27.27;98492.09;5112211;28;20034;-42
2022/09/17 09:33:32;;;;;;;7.80;2.70;;;;;;;36.22;27.16;98494.09;5112483;28;20161;-44
2022/09/17 09:35:58;;;;;;;8.93;2.70;;;;;;;35.69;27.65;98485.66;5112113;28;20027;-43
2022/09/17 09:38:44;;;;;;;9.73;2.63;;;;;;;35.85;27.24;98467.78;5112061;27;20023;-43
2022/09/17 09:41:16;;;;;;;12.23;3.17;;;;;;;35.66;27.63;98480.09;5111390;28;20035;-44
2022/09/17 09:43:47;;;;;;;25.23;20.20;;;;;;;35.86;27.54;98470.16;5111836;28;20416;-44
2022/09/17 09:46:46;;;;;;;21.17;15.38;;;;;;;36.11;26.86;98463.66;5111662;27;20048;-44
2022/09/17 09:49:39;;;;;;;6.55;2.83;;;;;;;36.17;26.04;98457.31;5112000;28;20364;-45
2022/09/17 09:52:37;;;;;;;8.88;2.53;;;;;;;36.40;26.63;98461.47;5111796;28;20034;-44
2022/09/17 09:55:22;;;;;;;8.90;2.70;;;;;;;36.50;25.78;98460.63;5111848;28;20070;-44
2022/09/17 09:57:56;;;;;;;9.35;3.13;;;;;;;36.13;26.70;98456.53;5111555;28;20513;-45
2022/09/17 10:00:24;;;;;;;8.20;2.63;;;;;;;36.23;26.25;98462.41;5111918;28;20102;-46
2022/09/17 10:02:55;;;;;;;8.80;2.90;;;;;;;36.61;25.74;98452.19;5111795;28;20035;-44
2022/09/17 10:05:21;;;;;;;7.13;2.53;;;;;;;36.84;25.30;98436.97;5111884;28;20032;-45
2022/09/17 10:07:46;;;;;;;6.95;2.85;;;;;;;37.00;25.59;98450.28;5111366;28;20023;-45
2022/09/17 10:10:12;;;;;;;7.85;2.65;;;;;;;37.10;24.95;98449.34;5111498;28;20058;-46
2022/09/17 10:12:37;;;;;;;6.78;2.15;;;;;;;36.91;25.24;98434.91;5111384;28;20051;-45
2022/09/17 10:15:32;;;;;;;9.75;2.80;;;;;;;36.38;26.25;98441.72;5111564;28;20038;-45
2022/09/17 10:18:12;;;;;;;9.82;2.70;;;;;;;36.89;25.67;98445.59;5093464;28;20122;-45
2022/09/17 10:20:49;;;;;;;8.90;2.75;;;;;;;37.08;25.16;98440.66;5111291;28;20494;-43
2022/09/17 10:23:14;;;;;;;11.95;2.85;;;;;;;37.07;25.37;98466.78;5111149;28;20024;-44
2022/09/17 10:25:43;;;;;;;8.25;2.70;;;;;;;37.28;25.64;98479.66;5111351;27;20092;-44
2022/09/17 10:28:45;;;;;;;12.35;2.70;;;;;;;37.10;25.83;98488.94;5110805;28;20467;-45
2022/09/17 10:31:11;;;;;;;9.13;2.70;;;;;;;36.70;26.49;98512.72;5107617;28;20039;-46
2022/09/17 10:34:00;;;;;;;9.23;3.10;;;;;;;35.89;26.95;98450.00;5111360;28;20046;-44
2022/09/17 10:36:35;;;;;;;;;;;;;;;34.65;29.27;98434.19;5111823;28;20119;-45
2022/09/17 10:39:17;;;;;;;8.52;3.00;;;;;;;33.98;30.85;98454.28;5110897;28;20049;-47
2022/09/17 10:42:20;;;;;;;8.65;3.05;;;;;;;34.05;31.29;98481.88;5109557;28;20038;-45
2022/09/17 10:44:57;;;;;;;10.85;3.13;;;;;;;33.96;32.11;98506.28;5110867;28;20035;-48
2022/09/17 10:47:28;;;;;;;15.02;3.50;;;;;;;33.87;33.30;98490.91;5111259;28;20026;-45
2022/09/17 10:50:00;;;;;;;9.65;3.50;;;;;;;34.04;33.40;98474.78;5110951;28;20110;-44
2022/09/17 10:52:29;;;;;;;7.15;3.30;;;;;;;33.43;34.82;98489.13;5110758;28;20027;-45
2022/09/17 10:55:10;;;;;;;11.30;4.32;;;;;;;33.81;34.76;98497.19;5111125;28;20058;-46
2022/09/17 10:58:01;;;;;;;9.20;4.47;;;;;;;34.07;34.70;98513.41;5110771;28;20042;-46
2022/09/17 11:00:37;;;;;;;9.40;4.00;;;;;;;34.05;34.43;98537.06;5110910;28;20398;-46
2022/09/17 11:03:40;;;;;;;12.40;3.22;;;;;;;33.53;35.36;98570.34;5110880;28;20081;-44
2022/09/17 11:06:14;;;;;;;15.07;3.80;;;;;;;33.40;35.45;98534.03;5110731;28;20023;-47
2022/09/17 11:09:12;;;;;;;12.32;4.28;;;;;;;33.11;36.47;98533.09;5110532;28;20402;-47
2022/09/17 11:11:37;;;;;;;13.50;3.25;;;;;;;32.99;37.53;98597.50;5037588;28;20089;-46
2022/09/17 11:14:05;;;;;;;9.23;3.47;;;;;;;32.73;37.83;98602.03;5111159;28;20533;-48
2022/09/17 11:16:46;;;;;;;10.18;3.35;;;;;;;32.53;37.82;98600.63;5110558;28;20097;-44
2022/09/17 11:19:30;;;;;;;10.10;3.50;;;;;;;31.75;39.43;98648.81;5110746;28;20513;-47
2022/09/17 11:22:14;;;;;;;11.95;3.25;;;;;;;30.74;41.03;98708.75;5110630;28;20134;-45
2022/09/17 11:25:02;;;;;;;18.40;3.53;;;;;;;27.70;52.02;98771.69;5111250;28;20050;-45
2022/09/17 11:27:45;;;;;;;19.35;3.50;;;;;;;25.94;60.94;98727.22;5111234;28;20478;-48
2022/09/17 11:30:20;;;;;;;13.18;3.05;;;;;;;24.21;69.29;98814.25;5111228;28;20028;-45
2022/09/17 11:32:51;;;;;;;12.50;3.28;;;;;;;24.23;69.81;98827.50;5110285;28;20063;-44
2022/09/17 11:35:23;;;;;;;7.15;2.30;;;;;;;24.07;69.73;98794.56;5110940;28;20034;-44
2022/09/17 11:38:14;;;;;;;7.13;2.60;;;;;;;24.30;67.68;98771.56;5110631;28;20045;-44
2022/09/17 11:40:47;;;;;;;5.68;2.30;;;;;;;24.50;66.28;98739.44;5110162;28;20505;-44
2022/09/17 11:43:29;;;;;;;6.85;2.13;;;;;;;24.45;67.44;98734.16;5110064;28;20024;-44
2022/09/17 11:45:57;;;;;;;5.97;2.10;;;;;;;25.05;64.83;98727.06;5110747;28;20470;-46
2022/09/17 11:48:33;;;;;;;3.75;1.90;;;;;;;24.92;64.39;98707.91;5110654;28;20024;-44
2022/09/17 11:51:33;;;;;;;4.82;1.67;;;;;;;25.18;63.61;98709.75;5110573;28;20031;-48
2022/09/17 11:54:25;;;;;;;3.05;1.85;;;;;;;24.82;63.87;98678.31;5101853;28;20031;-47